createdAt,value
2019-04-25T00:01:15.524Z,1.20
2019-04-25T00:03:43.954Z,1.13
2019-04-25T00:06:16.435Z,1.10
2019-04-25T00:08:45.125Z,1.20
2019-04-25T00:11:13.621Z,1.10
2019-04-25T00:13:43.115Z,1.07
2019-04-25T00:16:11.787Z,0.93
2019-04-25T00:18:40.191Z,1.17
2019-04-25T00:21:31.785Z,1.13
2019-04-25T00:24:05.936Z,1.30
2019-04-25T00:26:46.669Z,1.30
2019-04-25T00:29:14.700Z,1.20
2019-04-25T00:31:43.727Z,1.10
2019-04-25T00:34:12.169Z,1.13
2019-04-25T00:36:40.717Z,1.13
2019-04-25T00:39:09.880Z,1.00
2019-04-25T00:41:37.943Z,1.20
2019-04-25T00:44:05.928Z,1.17
2019-04-25T00:46:34.189Z,0.90
2019-04-25T00:49:02.555Z,1.10
2019-04-25T00:51:31.781Z,1.23
2019-04-25T00:53:59.816Z,1.13
2019-04-25T00:56:27.858Z,1.23
2019-04-25T00:59:11.856Z,1.00
2019-04-25T01:01:49.270Z,1.17
2019-04-25T01:04:18.687Z,1.40
2019-04-25T01:06:47.545Z,1.10
2019-04-25T01:09:17.514Z,1.20
2019-04-25T01:11:45.920Z,1.30
2019-04-25T01:14:14.050Z,1.20
2019-04-25T01:16:42.963Z,1.10
2019-04-25T01:19:11.206Z,1.20
2019-04-25T01:21:39.108Z,1.40
2019-04-25T01:24:07.061Z,1.20
2019-04-25T01:26:34.977Z,1.27
2019-04-25T01:29:03.725Z,1.30
2019-04-25T01:31:33.484Z,1.33
2019-04-25T01:34:01.344Z,1.50
2019-04-25T01:36:36.852Z,1.30
2019-04-25T01:39:09.218Z,1.30
2019-04-25T01:41:59.363Z,1.20
2019-04-25T01:44:34.130Z,1.30
2019-04-25T01:47:02.098Z,1.30
2019-04-25T01:49:30.107Z,1.20
2019-04-25T01:51:58.646Z,1.10
2019-04-25T01:54:27.207Z,1.10
2019-04-25T01:56:56.272Z,1.30
2019-04-25T01:59:24.590Z,1.40
2019-04-25T02:01:54.341Z,1.20
2019-04-25T02:04:23.193Z,1.17
2019-04-25T02:06:51.508Z,1.40
2019-04-25T02:09:19.960Z,1.50
2019-04-25T02:12:06.989Z,1.20
2019-04-25T02:14:35.462Z,1.20
2019-04-25T02:17:04.571Z,1.30
2019-04-25T02:19:34.295Z,1.20
2019-04-25T02:22:03.891Z,1.40
2019-04-25T02:24:31.456Z,1.17
2019-04-25T02:26:59.100Z,1.10
2019-04-25T02:29:27.153Z,1.30
2019-04-25T02:31:59.130Z,1.30
2019-04-25T02:34:25.497Z,1.20
2019-04-25T02:36:55.486Z,1.13
2019-04-25T02:39:24.698Z,1.30
2019-04-25T02:41:56.039Z,1.20
2019-04-25T02:44:24.759Z,1.30
2019-04-25T02:47:14.788Z,1.30
2019-04-25T02:50:00.809Z,1.30
2019-04-25T02:52:37.035Z,1.13
2019-04-25T02:55:10.329Z,1.40
2019-04-25T02:57:34.912Z,1.30
2019-04-25T03:00:05.721Z,1.20
2019-04-25T03:02:34.352Z,1.30
2019-04-25T03:05:06.184Z,1.53
2019-04-25T03:07:34.462Z,1.37
2019-04-25T03:10:05.729Z,1.13
2019-04-25T03:12:35.901Z,1.10
2019-04-25T03:15:02.127Z,1.40
2019-04-25T03:17:31.412Z,1.23
2019-04-25T03:20:24.415Z,1.30
2019-04-25T03:22:54.702Z,1.13
2019-04-25T03:25:24.632Z,1.30
2019-04-25T03:27:51.909Z,1.20
2019-04-25T03:30:19.894Z,1.30
2019-04-25T03:32:51.354Z,1.20
2019-04-25T03:35:17.580Z,1.40
2019-04-25T03:37:45.718Z,1.33
2019-04-25T03:40:14.109Z,1.40
2019-04-25T03:42:43.927Z,1.30
2019-04-25T03:45:13.760Z,1.20
2019-04-25T03:47:43.201Z,1.40
2019-04-25T03:50:12.307Z,1.53
2019-04-25T03:52:40.879Z,2.07
2019-04-25T03:55:09.041Z,1.37
2019-04-25T03:57:37.361Z,1.30
2019-04-25T04:00:06.533Z,1.13
2019-04-25T04:02:36.092Z,1.27
2019-04-25T04:05:06.057Z,1.43
2019-04-25T04:07:34.392Z,1.50
2019-04-25T04:10:04.516Z,1.10
2019-04-25T04:12:33.925Z,1.40
2019-04-25T04:15:01.741Z,1.33
2019-04-25T04:17:38.442Z,1.10
2019-04-25T04:20:26.484Z,1.00
2019-04-25T04:23:05.623Z,1.20
2019-04-25T04:25:33.737Z,1.30
2019-04-25T04:28:03.724Z,1.37
2019-04-25T04:30:33.938Z,1.53
2019-04-25T04:33:01.684Z,1.30
2019-04-25T04:35:29.668Z,1.17
2019-04-25T04:37:57.367Z,1.60
2019-04-25T04:40:25.737Z,1.40
2019-04-25T04:42:53.501Z,1.30
2019-04-25T04:45:21.345Z,1.90
2019-04-25T04:47:49.300Z,1.90
2019-04-25T04:50:18.563Z,1.40
2019-04-25T04:52:46.810Z,1.40
2019-04-25T04:55:16.925Z,1.30
2019-04-25T04:57:44.862Z,1.70
2019-04-25T05:00:14.237Z,1.50
2019-04-25T05:02:57.631Z,1.47
2019-04-25T05:05:36.135Z,1.30
2019-04-25T05:08:07.799Z,1.53
2019-04-25T05:10:35.894Z,1.67
2019-04-25T05:13:04.334Z,1.47
2019-04-25T05:15:33.343Z,1.60
2019-04-25T05:18:01.648Z,1.50
2019-04-25T05:20:29.678Z,1.43
2019-04-25T05:22:57.397Z,1.30
2019-04-25T05:25:25.364Z,1.47
2019-04-25T05:28:00.728Z,1.57
2019-04-25T05:30:27.842Z,1.53
2019-04-25T05:32:56.233Z,1.70
2019-04-25T05:35:25.273Z,1.23
2019-04-25T05:37:53.809Z,1.40
2019-04-25T05:40:23.729Z,1.50
2019-04-25T05:43:05.237Z,1.47
2019-04-25T05:45:34.125Z,1.20
2019-04-25T05:48:01.849Z,1.50
2019-04-25T05:50:29.848Z,1.40
2019-04-25T05:52:57.484Z,1.20
2019-04-25T05:55:27.573Z,1.20
2019-04-25T05:57:55.570Z,1.30
2019-04-25T06:00:25.060Z,1.40
2019-04-25T06:02:53.343Z,1.30
2019-04-25T06:05:23.444Z,1.60
2019-04-25T06:07:51.246Z,1.30
2019-04-25T06:10:38.412Z,1.20
2019-04-25T06:13:37.765Z,1.23
2019-04-25T06:16:10.116Z,1.30
2019-04-25T06:19:11.858Z,1.40
2019-04-25T06:21:46.894Z,1.20
2019-04-25T06:24:34.713Z,1.20
2019-04-25T06:27:25.894Z,1.17
2019-04-25T06:30:12.229Z,1.30
2019-04-25T06:32:40.334Z,1.20
2019-04-25T06:35:07.987Z,1.17
2019-04-25T06:37:35.988Z,1.40
2019-04-25T06:40:05.090Z,1.00
2019-04-25T06:42:34.578Z,1.13
2019-04-25T06:45:10.808Z,1.50
2019-04-25T06:47:48.524Z,1.20
2019-04-25T06:50:17.106Z,1.37
2019-04-25T06:52:45.146Z,1.20
2019-04-25T06:55:14.101Z,1.20
2019-04-25T06:57:44.092Z,1.10
2019-04-25T07:00:14.059Z,1.10
2019-04-25T07:02:43.495Z,1.13
2019-04-25T07:05:26.161Z,1.23
2019-04-25T07:07:45.274Z,1.00
2019-04-25T07:10:13.348Z,1.17
2019-04-25T07:12:41.188Z,1.37
2019-04-25T07:15:09.645Z,1.10
2019-04-25T07:17:37.841Z,1.20
2019-04-25T07:20:06.034Z,1.10
2019-04-25T07:22:35.386Z,1.00
2019-04-25T07:25:04.241Z,1.00
2019-04-25T07:27:46.969Z,1.20
2019-04-25T07:30:52.652Z,1.20
2019-04-25T07:33:25.951Z,1.00
2019-04-25T07:35:56.469Z,1.10
2019-04-25T07:38:23.774Z,1.20
2019-04-25T07:40:53.710Z,1.03
2019-04-25T07:43:23.371Z,1.20
2019-04-25T07:45:51.160Z,1.40
2019-04-25T07:48:19.560Z,1.00
2019-04-25T07:50:47.472Z,1.00
2019-04-25T07:53:15.771Z,0.90
2019-04-25T07:55:43.413Z,1.00
2019-04-25T07:58:11.397Z,1.10
2019-04-25T08:00:39.369Z,1.00
2019-04-25T08:03:07.092Z,1.13
2019-04-25T08:05:35.673Z,1.07
2019-04-25T08:08:04.302Z,1.10
2019-04-25T08:10:38.150Z,1.10
2019-04-25T08:13:06.115Z,1.10
2019-04-25T08:15:44.039Z,0.90
2019-04-25T08:18:12.014Z,1.00
2019-04-25T08:20:40.232Z,1.00
2019-04-25T08:23:08.400Z,1.00
2019-04-25T08:25:39.250Z,0.80
2019-04-25T08:28:05.913Z,1.03
2019-04-25T08:30:35.338Z,0.90
2019-04-25T08:33:03.957Z,1.37
2019-04-25T08:35:33.849Z,1.00
2019-04-25T08:38:03.439Z,1.17
2019-04-25T08:40:32.515Z,1.00
2019-04-25T08:43:01.569Z,0.93
2019-04-25T08:45:29.543Z,0.90
2019-04-25T08:47:57.714Z,1.10
2019-04-25T08:50:33.254Z,0.90
2019-04-25T08:52:59.996Z,1.00
2019-04-25T08:55:48.569Z,1.10
2019-04-25T08:58:35.400Z,0.87
2019-04-25T09:01:14.464Z,1.00
2019-04-25T09:03:48.005Z,0.97
2019-04-25T09:06:16.396Z,1.07
2019-04-25T09:08:46.517Z,1.03
2019-04-25T09:11:14.169Z,0.97
2019-04-25T09:13:43.468Z,1.90
2019-04-25T09:16:11.260Z,1.00
2019-04-25T09:18:38.912Z,0.97
2019-04-25T09:21:07.265Z,1.10
2019-04-25T09:23:36.439Z,1.00
2019-04-25T09:26:05.664Z,0.70
2019-04-25T09:28:35.103Z,0.90
2019-04-25T09:31:03.965Z,1.07
2019-04-25T09:33:31.708Z,1.03
2019-04-25T09:35:59.631Z,1.00
2019-04-25T09:38:27.622Z,0.90
2019-04-25T09:40:55.251Z,0.93
2019-04-25T09:43:23.508Z,0.80
2019-04-25T09:46:03.882Z,1.20
2019-04-25T09:48:50.933Z,0.80
2019-04-25T09:51:29.028Z,1.00
2019-04-25T09:54:16.123Z,0.90
2019-04-25T09:56:46.102Z,0.90
2019-04-25T09:59:26.802Z,0.80
2019-04-25T10:01:50.045Z,0.83
2019-04-25T10:04:18.527Z,1.00
2019-04-25T10:06:46.460Z,0.97
2019-04-25T10:09:15.665Z,0.90
2019-04-25T10:11:45.075Z,1.00
2019-04-25T10:14:17.289Z,0.80
2019-04-25T10:16:45.623Z,0.80
2019-04-25T10:19:14.010Z,0.90
2019-04-25T10:21:41.976Z,0.90
2019-04-25T10:24:09.872Z,0.80
2019-04-25T10:26:37.645Z,0.80
2019-04-25T10:29:06.656Z,0.80
2019-04-25T10:31:34.905Z,0.80
2019-04-25T10:34:03.848Z,0.90
2019-04-25T10:36:33.509Z,1.00
2019-04-25T10:39:07.924Z,0.93
2019-04-25T10:41:31.146Z,0.83
2019-04-25T10:43:58.865Z,1.00
2019-04-25T10:46:27.550Z,1.40
2019-04-25T10:48:56.185Z,0.67
2019-04-25T10:51:24.121Z,1.00
2019-04-25T10:53:53.904Z,0.90
2019-04-25T10:56:21.714Z,0.80
2019-04-25T10:58:49.610Z,1.00
2019-04-25T11:01:17.388Z,0.80
2019-04-25T11:04:04.748Z,0.80
2019-04-25T11:06:33.689Z,0.80
2019-04-25T11:09:03.492Z,0.73
2019-04-25T11:11:34.126Z,0.70
2019-04-25T11:14:03.376Z,0.87
2019-04-25T11:16:33.182Z,1.00
2019-04-25T11:19:01.148Z,0.90
2019-04-25T11:21:29.695Z,0.70
2019-04-25T11:23:57.848Z,0.90
2019-04-25T11:26:26.552Z,0.73
2019-04-25T11:28:54.884Z,0.83
2019-04-25T11:31:40.436Z,0.80
2019-04-25T11:34:08.893Z,0.90
2019-04-25T11:36:36.861Z,0.83
2019-04-25T11:39:31.636Z,0.80
2019-04-25T11:42:00.007Z,0.70
2019-04-25T11:44:28.218Z,1.20
2019-04-25T11:46:56.498Z,0.80
2019-04-25T11:49:24.503Z,0.90
2019-04-25T11:51:52.414Z,0.80
2019-04-25T11:54:20.168Z,0.80
2019-04-25T11:56:48.638Z,0.60
2019-04-25T11:59:16.745Z,0.60
2019-04-25T12:01:46.741Z,0.77
2019-04-25T12:04:15.173Z,0.70
2019-04-25T12:06:45.730Z,0.80
2019-04-25T12:09:13.870Z,0.90
2019-04-25T12:11:44.602Z,0.70
2019-04-25T12:14:12.298Z,0.87
2019-04-25T12:16:40.528Z,0.83
2019-04-25T12:19:08.820Z,1.00
2019-04-25T12:21:37.170Z,0.93
2019-04-25T12:24:05.873Z,0.70
2019-04-25T12:26:34.152Z,0.80
2019-04-25T12:29:04.251Z,0.73
2019-04-25T12:31:34.058Z,0.90
2019-04-25T12:34:03.429Z,0.87
2019-04-25T12:36:31.590Z,1.20
2019-04-25T12:38:59.289Z,1.90
2019-04-25T12:41:27.225Z,5.30
2019-04-25T12:44:11.836Z,5.50
2019-04-25T12:46:43.617Z,2.47
2019-04-25T12:49:13.122Z,1.80
2019-04-25T12:51:41.803Z,1.70
2019-04-25T12:54:09.628Z,1.60
2019-04-25T12:56:37.343Z,2.13
2019-04-25T12:59:05.036Z,1.80
2019-04-25T13:01:33.372Z,1.00
2019-04-25T13:04:01.737Z,1.20
2019-04-25T13:06:29.801Z,1.40
2019-04-25T13:08:57.496Z,1.00
2019-04-25T13:11:25.213Z,0.93
2019-04-25T13:13:53.192Z,1.13
2019-04-25T13:16:21.181Z,0.80
2019-04-25T13:18:49.210Z,0.77
2019-04-25T13:21:17.578Z,0.67
2019-04-25T13:23:45.880Z,1.13
2019-04-25T13:26:14.937Z,0.97
2019-04-25T13:29:14.707Z,1.03
2019-04-25T13:32:01.035Z,0.87
2019-04-25T13:34:36.703Z,1.00
2019-04-25T13:37:06.197Z,0.90
2019-04-25T13:39:34.620Z,1.00
2019-04-25T13:42:05.175Z,0.83
2019-04-25T13:44:34.251Z,0.97
2019-04-25T13:47:04.075Z,0.93
2019-04-25T13:49:32.054Z,1.00
2019-04-25T13:52:00.462Z,0.83
2019-04-25T13:54:28.786Z,0.97
2019-04-25T13:56:57.083Z,0.90
2019-04-25T13:59:25.671Z,1.10
2019-04-25T14:01:57.550Z,1.00
2019-04-25T14:04:26.444Z,0.90
2019-04-25T14:06:54.708Z,1.10
2019-04-25T14:09:24.888Z,0.80
2019-04-25T14:11:54.104Z,0.90
2019-04-25T14:14:22.674Z,1.00
2019-04-25T14:17:07.096Z,0.83
2019-04-25T14:20:05.969Z,1.00
2019-04-25T14:22:34.037Z,1.10
2019-04-25T14:25:03.875Z,0.83
2019-04-25T14:27:33.929Z,1.10
2019-04-25T14:30:01.549Z,0.80
2019-04-25T14:32:30.182Z,0.83
2019-04-25T14:34:58.019Z,1.20
2019-04-25T14:37:29.303Z,0.80
2019-04-25T14:39:56.100Z,0.90
2019-04-25T14:42:24.518Z,0.97
2019-04-25T14:44:52.502Z,1.10
2019-04-25T14:47:20.460Z,1.00
2019-04-25T14:49:48.683Z,1.27
2019-04-25T14:52:16.737Z,1.97
2019-04-25T14:54:57.072Z,1.10
2019-04-25T14:57:26.765Z,1.27
2019-04-25T14:59:55.160Z,1.17
2019-04-25T15:02:25.716Z,0.90
2019-04-25T15:04:53.764Z,1.17
2019-04-25T15:07:22.051Z,1.10
2019-04-25T15:09:52.033Z,1.30
2019-04-25T15:12:20.028Z,1.37
2019-04-25T15:14:48.247Z,1.30
2019-04-25T15:17:15.972Z,1.20
2019-04-25T15:19:44.056Z,1.13
2019-04-25T15:22:11.733Z,1.20
2019-04-25T15:24:40.031Z,1.10
2019-04-25T15:27:07.667Z,1.00
2019-04-25T15:29:35.719Z,1.20
2019-04-25T15:32:04.751Z,1.10
2019-04-25T15:34:39.568Z,1.30
2019-04-25T15:37:25.200Z,1.40
2019-04-25T15:39:57.255Z,1.10
2019-04-25T15:42:43.554Z,1.07
2019-04-25T15:45:34.209Z,1.30
2019-04-25T15:48:03.589Z,1.20
2019-04-25T15:50:31.909Z,1.20
2019-04-25T15:52:59.656Z,1.20
2019-04-25T15:55:27.436Z,1.13
2019-04-25T15:57:55.681Z,1.10
2019-04-25T16:00:31.967Z,1.30
2019-04-25T16:03:00.973Z,1.33
2019-04-25T16:05:29.924Z,1.20
2019-04-25T16:07:57.701Z,1.10
2019-04-25T16:10:25.393Z,1.10
2019-04-25T16:12:53.560Z,0.90
2019-04-25T16:15:21.286Z,0.90
2019-04-25T16:17:49.061Z,0.93
2019-04-25T16:20:17.049Z,0.93
2019-04-25T16:22:44.789Z,1.10
2019-04-25T16:25:13.698Z,1.00
2019-04-25T16:27:42.014Z,0.90
2019-04-25T16:30:10.421Z,0.93
2019-04-25T16:32:38.470Z,0.90
2019-04-25T16:35:06.473Z,1.00
2019-04-25T16:37:34.618Z,1.27
2019-04-25T16:40:02.857Z,0.90
2019-04-25T16:42:31.608Z,1.00
2019-04-25T16:45:00.241Z,1.07
2019-04-25T16:47:31.143Z,0.90
2019-04-25T16:49:59.310Z,0.80
2019-04-25T16:52:27.828Z,1.07
2019-04-25T16:54:55.887Z,0.90
2019-04-25T16:57:23.820Z,1.10
2019-04-25T16:59:51.815Z,0.83
2019-04-25T17:02:32.242Z,0.80
2019-04-25T17:04:49.741Z,1.07
2019-04-25T17:07:22.116Z,1.00
2019-04-25T17:09:50.149Z,1.07
2019-04-25T17:12:19.746Z,1.10
2019-04-25T17:15:15.984Z,1.07
2019-04-25T17:17:54.393Z,1.00
2019-04-25T17:20:25.200Z,1.10
2019-04-25T17:22:53.308Z,0.80
2019-04-25T17:25:21.428Z,1.10
2019-04-25T17:27:49.763Z,0.80
2019-04-25T17:30:17.593Z,0.80
2019-04-25T17:33:07.771Z,0.97
2019-04-25T17:35:53.323Z,0.80
2019-04-25T17:38:27.429Z,0.90
2019-04-25T17:40:55.200Z,1.10
2019-04-25T17:43:22.926Z,0.90
2019-04-25T17:45:51.351Z,0.83
2019-04-25T17:48:19.260Z,1.00
2019-04-25T17:50:47.388Z,0.90
2019-04-25T17:53:18.600Z,0.90
2019-04-25T17:55:48.996Z,0.80
2019-04-25T17:58:19.406Z,0.73
2019-04-25T18:00:47.666Z,0.80
2019-04-25T18:03:15.613Z,0.87
2019-04-25T18:05:46.054Z,0.80
2019-04-25T18:08:14.210Z,0.70
2019-04-25T18:10:46.238Z,1.00
2019-04-25T18:13:16.276Z,0.90
2019-04-25T18:16:06.183Z,0.70
2019-04-25T18:18:54.600Z,0.73
2019-04-25T18:21:25.119Z,0.90
2019-04-25T18:24:11.119Z,0.80
2019-04-25T18:27:07.590Z,0.70
2019-04-25T18:29:36.057Z,0.70
2019-04-25T18:32:03.852Z,0.90
2019-04-25T18:34:49.229Z,0.70
2019-04-25T18:37:46.012Z,0.80
2019-04-25T18:40:29.081Z,0.70
2019-04-25T18:43:31.621Z,0.83
2019-04-25T18:46:03.602Z,0.70
2019-04-25T18:48:31.961Z,0.90
2019-04-25T18:51:00.042Z,0.90
2019-04-25T18:53:56.369Z,0.70
2019-04-25T18:56:29.428Z,0.70
2019-04-25T18:59:28.243Z,0.90
2019-04-25T19:02:14.049Z,0.90
2019-04-25T19:04:56.662Z,0.90
2019-04-25T19:07:24.782Z,0.90
2019-04-25T19:09:52.826Z,1.00
2019-04-25T19:12:21.116Z,0.90
2019-04-25T19:14:49.193Z,0.80
2019-04-25T19:17:17.342Z,0.90
2019-04-25T19:19:45.615Z,0.87
2019-04-25T19:22:13.468Z,0.90
2019-04-25T19:24:44.986Z,0.90
2019-04-25T19:27:22.983Z,0.80
2019-04-25T19:29:41.679Z,0.83
2019-04-25T19:32:09.773Z,0.80
2019-04-25T19:34:37.838Z,0.97
2019-04-25T19:37:06.104Z,1.10
2019-04-25T19:39:36.097Z,0.80
2019-04-25T19:42:17.078Z,0.90
2019-04-25T19:44:45.131Z,0.80
2019-04-25T19:47:13.063Z,0.90
2019-04-25T19:49:41.645Z,0.70
2019-04-25T19:52:09.471Z,0.90
2019-04-25T19:54:37.871Z,0.90
2019-04-25T19:57:05.825Z,1.00
2019-04-25T19:59:33.462Z,0.90
2019-04-25T20:02:05.936Z,1.00
2019-04-25T20:04:49.973Z,0.90
2019-04-25T20:07:25.650Z,0.90
2019-04-25T20:10:11.524Z,0.70
2019-04-25T20:12:50.527Z,0.90
2019-04-25T20:15:16.797Z,1.00
2019-04-25T20:17:44.862Z,0.83
2019-04-25T20:20:14.033Z,0.80
2019-04-25T20:22:42.337Z,0.90
2019-04-25T20:25:10.960Z,0.80
2019-04-25T20:27:39.121Z,1.00
2019-04-25T20:30:10.669Z,1.20
2019-04-25T20:32:38.333Z,1.13
2019-04-25T20:35:06.617Z,0.87
2019-04-25T20:37:34.500Z,1.00
2019-04-25T20:40:02.562Z,1.00
2019-04-25T20:42:30.312Z,1.00
2019-04-25T20:44:58.421Z,0.90
2019-04-25T20:47:26.345Z,0.83
2019-04-25T20:49:55.304Z,0.80
2019-04-25T20:52:23.726Z,1.20
2019-04-25T20:54:52.789Z,1.30
2019-04-25T20:57:20.956Z,1.27
2019-04-25T20:59:49.330Z,1.00
2019-04-25T21:02:17.728Z,1.00
2019-04-25T21:04:45.383Z,1.30
2019-04-25T21:07:13.300Z,1.10
2019-04-25T21:09:41.197Z,1.10
2019-04-25T21:12:08.968Z,0.93
2019-04-25T21:14:58.608Z,1.27
2019-04-25T21:17:30.779Z,1.03
2019-04-25T21:19:59.385Z,1.00
2019-04-25T21:22:27.394Z,1.10
2019-04-25T21:24:55.846Z,1.10
2019-04-25T21:27:24.130Z,2.00
2019-04-25T21:29:52.121Z,1.50
2019-04-25T21:32:21.537Z,1.10
2019-04-25T21:34:50.743Z,1.10
2019-04-25T21:37:19.503Z,1.13
2019-04-25T21:40:02.879Z,0.97
2019-04-25T21:42:34.385Z,1.00
2019-04-25T21:45:02.765Z,1.10
2019-04-25T21:47:30.715Z,1.10
2019-04-25T21:49:58.981Z,1.00
2019-04-25T21:52:26.914Z,1.10
2019-04-25T21:54:55.778Z,1.03
2019-04-25T21:57:23.754Z,1.20
2019-04-25T22:00:00.243Z,1.00
2019-04-25T22:02:21.615Z,0.90
2019-04-25T22:04:49.928Z,1.03
2019-04-25T22:07:18.572Z,1.00
2019-04-25T22:09:46.724Z,0.90
2019-04-25T22:12:15.249Z,1.17
2019-04-25T22:14:43.455Z,1.20
2019-04-25T22:17:11.469Z,1.30
2019-04-25T22:19:40.092Z,1.10
2019-04-25T22:22:08.313Z,1.10
2019-04-25T22:24:36.073Z,1.20
2019-04-25T22:27:07.354Z,1.37
2019-04-25T22:29:36.751Z,1.10
2019-04-25T22:32:25.537Z,1.30
2019-04-25T22:35:03.733Z,1.30
2019-04-25T22:37:31.754Z,1.20
2019-04-25T22:40:01.177Z,1.10
2019-04-25T22:42:29.148Z,1.20
2019-04-25T22:44:57.117Z,1.30
2019-04-25T22:47:25.058Z,1.40
2019-04-25T22:49:53.248Z,1.30
2019-04-25T22:52:21.508Z,1.20
2019-04-25T22:54:49.545Z,1.13
2019-04-25T22:57:18.333Z,1.20
2019-04-25T22:59:46.735Z,1.20
2019-04-25T23:02:25.973Z,1.37
2019-04-25T23:05:16.619Z,1.30
2019-04-25T23:07:44.660Z,1.40
2019-04-25T23:10:13.230Z,1.30
2019-04-25T23:12:41.223Z,1.30
2019-04-25T23:15:09.070Z,1.30
2019-04-25T23:17:36.759Z,1.33
2019-04-25T23:20:05.621Z,1.30
2019-04-25T23:22:33.705Z,1.23
2019-04-25T23:25:08.316Z,1.30
2019-04-25T23:27:55.807Z,1.30
2019-04-25T23:30:27.181Z,1.57
2019-04-25T23:32:54.834Z,1.30
2019-04-25T23:35:31.635Z,1.60
2019-04-25T23:37:52.572Z,1.60
2019-04-25T23:40:20.945Z,1.90
2019-04-25T23:42:49.664Z,1.90
2019-04-25T23:45:17.764Z,1.67
2019-04-25T23:47:46.006Z,1.90
2019-04-25T23:50:14.743Z,1.60
2019-04-25T23:52:42.818Z,1.70
2019-04-25T23:55:11.162Z,1.70
2019-04-25T23:57:39.316Z,1.70
